createdAt,value
2023-02-03T00:00:33.947Z,7.88
2023-02-03T00:02:37.027Z,7.15
2023-02-03T00:04:40.071Z,7.63
2023-02-03T00:06:43.728Z,7.70
2023-02-03T00:08:48.317Z,8.00
2023-02-03T00:10:51.432Z,7.85
2023-02-03T00:12:55.033Z,8.25
2023-02-03T00:14:58.086Z,8.43
2023-02-03T00:17:01.116Z,9.10
2023-02-03T00:19:04.437Z,8.73
2023-02-03T00:21:07.969Z,9.18
2023-02-03T00:23:12.797Z,9.07
2023-02-03T00:25:17.307Z,10.05
2023-02-03T00:27:20.327Z,9.73
2023-02-03T00:29:25.877Z,10.25
2023-02-03T00:31:29.057Z,9.15
2023-02-03T00:33:33.697Z,9.90
2023-02-03T00:35:39.431Z,9.60
2023-02-03T00:37:56.493Z,10.00
2023-02-03T00:39:59.515Z,9.68
2023-02-03T00:42:04.738Z,10.50
2023-02-03T00:44:07.855Z,9.73
2023-02-03T00:46:11.494Z,9.70
2023-02-03T00:48:15.042Z,10.82
2023-02-03T00:50:20.337Z,11.20
2023-02-03T00:52:23.356Z,11.20
2023-02-03T00:54:26.704Z,11.20
2023-02-03T00:56:29.743Z,11.30
2023-02-03T00:58:34.124Z,11.15
2023-02-03T01:00:39.653Z,10.20
2023-02-03T01:02:42.863Z,11.50
2023-02-03T01:04:45.898Z,10.80
2023-02-03T01:06:48.924Z,11.13
2023-02-03T01:08:52.527Z,11.75
2023-02-03T01:10:55.537Z,10.77
2023-02-03T01:12:58.585Z,11.02
2023-02-03T01:15:06.416Z,10.50
2023-02-03T01:17:09.430Z,10.88
2023-02-03T01:19:12.447Z,9.85
2023-02-03T01:21:17.788Z,10.48
2023-02-03T01:23:20.875Z,9.80
2023-02-03T01:25:23.948Z,10.15
2023-02-03T01:27:27.009Z,9.95
2023-02-03T01:29:32.705Z,10.13
2023-02-03T01:31:39.714Z,9.15
2023-02-03T01:33:47.067Z,9.32
2023-02-03T01:35:50.078Z,9.50
2023-02-03T01:37:53.146Z,9.48
2023-02-03T01:39:56.169Z,8.77
2023-02-03T01:41:59.203Z,9.40
2023-02-03T01:44:03.610Z,9.25
2023-02-03T01:46:21.841Z,8.02
2023-02-03T01:48:26.249Z,7.38
2023-02-03T01:50:33.108Z,7.57
2023-02-03T01:52:37.630Z,6.82
2023-02-03T01:54:44.902Z,7.05
2023-02-03T01:56:52.486Z,6.78
2023-02-03T01:58:55.621Z,7.05
2023-02-03T02:00:59.779Z,6.72
2023-02-03T02:03:05.526Z,6.93
2023-02-03T02:05:14.910Z,6.57
2023-02-03T02:07:18.311Z,6.72
2023-02-03T02:09:21.779Z,7.10
2023-02-03T02:11:24.817Z,6.70
2023-02-03T02:13:29.948Z,6.90
2023-02-03T02:15:44.320Z,6.65
2023-02-03T02:18:07.625Z,6.90
2023-02-03T02:20:45.563Z,6.82
2023-02-03T02:23:04.886Z,6.43
2023-02-03T02:25:45.260Z,6.18
2023-02-03T02:28:19.632Z,6.47
2023-02-03T02:30:54.953Z,6.57
2023-02-03T02:33:12.734Z,6.70
2023-02-03T02:35:21.598Z,6.28
2023-02-03T02:37:36.287Z,6.70
2023-02-03T02:39:48.112Z,5.68
2023-02-03T02:41:59.464Z,6.18
2023-02-03T02:44:08.893Z,6.47
2023-02-03T02:46:14.799Z,6.05
2023-02-03T02:48:24.186Z,6.15
2023-02-03T02:50:33.141Z,6.15
2023-02-03T02:52:42.205Z,6.00
2023-02-03T02:54:50.655Z,6.13
2023-02-03T02:56:57.905Z,5.78
2023-02-03T02:59:03.994Z,5.32
2023-02-03T03:01:09.537Z,5.30
2023-02-03T03:03:15.721Z,5.07
2023-02-03T03:05:20.996Z,4.78
2023-02-03T03:07:30.200Z,4.47
2023-02-03T03:09:37.178Z,4.68
2023-02-03T03:11:44.315Z,4.22
2023-02-03T03:13:51.032Z,4.32
2023-02-03T03:15:57.738Z,3.88
2023-02-03T03:18:07.018Z,3.42
2023-02-03T03:20:13.787Z,3.40
2023-02-03T03:22:21.318Z,4.07
2023-02-03T03:24:29.102Z,3.30
2023-02-03T03:26:36.468Z,3.30
2023-02-03T03:28:46.821Z,3.15
2023-02-03T03:30:50.125Z,2.67
2023-02-03T03:32:53.977Z,3.10
2023-02-03T03:34:57.819Z,3.15
2023-02-03T03:37:08.560Z,3.10
2023-02-03T03:39:16.716Z,2.95
2023-02-03T03:41:28.114Z,2.80
2023-02-03T03:43:36.140Z,3.25
2023-02-03T03:45:45.751Z,2.85
2023-02-03T03:47:54.359Z,2.83
2023-02-03T03:50:00.907Z,3.00
2023-02-03T03:52:10.283Z,3.28
2023-02-03T03:54:17.947Z,2.85
2023-02-03T03:56:26.660Z,3.13
2023-02-03T03:58:32.119Z,3.13
2023-02-03T04:00:38.893Z,3.30
2023-02-03T04:02:46.422Z,3.20
2023-02-03T04:04:50.794Z,2.88
2023-02-03T04:06:55.595Z,3.17
2023-02-03T04:08:58.644Z,3.60
2023-02-03T04:11:03.113Z,3.50
2023-02-03T04:13:07.688Z,3.72
2023-02-03T04:15:10.975Z,3.58
2023-02-03T04:17:14.030Z,3.63
2023-02-03T04:19:17.048Z,3.47
2023-02-03T04:21:21.207Z,4.20
2023-02-03T04:23:24.262Z,4.70
2023-02-03T04:25:27.752Z,4.43
2023-02-03T04:27:32.243Z,4.25
2023-02-03T04:29:35.286Z,4.45
2023-02-03T04:31:39.477Z,4.25
2023-02-03T04:33:42.508Z,4.72
2023-02-03T04:35:45.509Z,4.22
2023-02-03T04:37:48.509Z,4.20
2023-02-03T04:39:52.505Z,4.20
2023-02-03T04:41:55.544Z,4.53
2023-02-03T04:43:59.939Z,4.53
2023-02-03T04:46:03.069Z,4.63
2023-02-03T04:48:06.311Z,4.50
2023-02-03T04:50:10.399Z,4.80
2023-02-03T04:52:14.192Z,4.93
2023-02-03T04:54:17.372Z,4.72
2023-02-03T04:56:20.705Z,4.60
2023-02-03T04:58:23.938Z,5.18
2023-02-03T05:00:30.613Z,4.90
2023-02-03T05:02:33.884Z,5.32
2023-02-03T05:04:36.924Z,5.55
2023-02-03T05:06:40.017Z,6.25
2023-02-03T05:08:43.145Z,5.45
2023-02-03T05:10:46.221Z,5.85
2023-02-03T05:12:49.277Z,5.65
2023-02-03T05:14:52.299Z,5.75
2023-02-03T05:16:56.839Z,6.32
2023-02-03T05:18:59.907Z,6.53
2023-02-03T05:21:03.184Z,6.43
2023-02-03T05:23:06.285Z,6.40
2023-02-03T05:25:10.459Z,6.15
2023-02-03T05:27:13.565Z,6.30
2023-02-03T05:29:16.588Z,6.15
2023-02-03T05:31:19.799Z,5.75
2023-02-03T05:33:24.298Z,5.80
2023-02-03T05:35:27.410Z,5.55
2023-02-03T05:37:30.653Z,5.18
2023-02-03T05:39:33.648Z,4.80
2023-02-03T05:41:54.115Z,5.00
2023-02-03T05:43:57.961Z,5.35
2023-02-03T05:46:01.998Z,4.95
2023-02-03T05:48:05.297Z,5.13
2023-02-03T05:50:10.295Z,4.63
2023-02-03T05:52:13.305Z,4.75
2023-02-03T05:54:16.790Z,4.38
2023-02-03T05:56:19.965Z,4.07
2023-02-03T05:58:23.138Z,4.10
2023-02-03T06:00:26.547Z,4.50
2023-02-03T06:02:29.765Z,4.07
2023-02-03T06:04:32.847Z,3.60
2023-02-03T06:06:37.293Z,3.92
2023-02-03T06:08:40.306Z,4.00
2023-02-03T06:10:43.343Z,4.25
2023-02-03T06:12:46.421Z,3.38
2023-02-03T06:14:49.438Z,3.45
2023-02-03T06:16:52.597Z,3.70
2023-02-03T06:18:58.410Z,3.28
2023-02-03T06:21:01.495Z,3.20
2023-02-03T06:23:05.984Z,3.47
2023-02-03T06:25:12.633Z,3.47
2023-02-03T06:27:16.428Z,4.13
2023-02-03T06:29:19.610Z,3.42
2023-02-03T06:31:22.696Z,4.20
2023-02-03T06:33:25.820Z,3.92
2023-02-03T06:35:28.917Z,4.03
2023-02-03T06:37:32.388Z,3.55
2023-02-03T06:39:36.849Z,3.78
2023-02-03T06:41:39.886Z,3.95
2023-02-03T06:43:42.969Z,4.18
2023-02-03T06:45:47.218Z,3.92
2023-02-03T06:47:50.267Z,4.57
2023-02-03T06:49:53.332Z,4.65
2023-02-03T06:51:56.733Z,5.03
2023-02-03T06:53:59.873Z,4.88
2023-02-03T06:56:04.506Z,4.25
2023-02-03T06:58:07.541Z,4.32
2023-02-03T07:00:16.729Z,4.65
2023-02-03T07:02:21.521Z,4.20
2023-02-03T07:04:24.809Z,4.63
2023-02-03T07:06:29.231Z,4.70
2023-02-03T07:08:32.239Z,4.60
2023-02-03T07:10:35.282Z,3.25
2023-02-03T07:12:39.665Z,4.05
2023-02-03T07:14:42.648Z,4.05
2023-02-03T07:16:45.764Z,4.70
2023-02-03T07:18:49.512Z,3.80
2023-02-03T07:20:52.684Z,3.50
2023-02-03T07:22:57.559Z,3.63
2023-02-03T07:25:00.597Z,4.10
2023-02-03T07:27:04.677Z,4.15
2023-02-03T07:29:09.400Z,4.10
2023-02-03T07:31:12.610Z,3.88
2023-02-03T07:33:15.694Z,3.42
2023-02-03T07:35:19.463Z,4.10
2023-02-03T07:37:22.480Z,3.42
2023-02-03T07:39:25.727Z,3.58
2023-02-03T07:41:28.772Z,3.47
2023-02-03T07:43:31.846Z,3.65
2023-02-03T07:45:36.281Z,3.60
2023-02-03T07:47:39.476Z,3.83
2023-02-03T07:49:42.936Z,3.20
2023-02-03T07:51:46.031Z,3.45
2023-02-03T07:53:49.070Z,3.75
2023-02-03T07:55:52.035Z,3.70
2023-02-03T07:57:55.250Z,3.15
2023-02-03T07:59:58.291Z,3.70
2023-02-03T08:02:02.841Z,3.88
2023-02-03T08:04:06.451Z,3.90
2023-02-03T08:06:10.169Z,3.65
2023-02-03T08:08:13.141Z,4.50
2023-02-03T08:10:17.935Z,4.43
2023-02-03T08:12:21.733Z,3.67
2023-02-03T08:14:29.806Z,3.90
2023-02-03T08:16:32.986Z,4.00
2023-02-03T08:18:37.538Z,4.05
2023-02-03T08:20:40.628Z,3.38
2023-02-03T08:22:43.751Z,3.90
2023-02-03T08:24:47.813Z,3.63
2023-02-03T08:26:50.873Z,3.83
2023-02-03T08:28:54.176Z,3.58
2023-02-03T08:30:57.759Z,4.10
2023-02-03T08:33:01.554Z,3.60
2023-02-03T08:35:08.176Z,4.75
2023-02-03T08:37:13.824Z,4.45
2023-02-03T08:39:17.067Z,4.00
2023-02-03T08:41:20.467Z,5.03
2023-02-03T08:43:23.543Z,5.45
2023-02-03T08:45:26.648Z,5.93
2023-02-03T08:47:29.829Z,5.22
2023-02-03T08:49:33.217Z,5.90
2023-02-03T08:51:37.809Z,6.05
2023-02-03T08:53:40.882Z,5.05
2023-02-03T08:55:43.889Z,5.35
2023-02-03T08:57:47.349Z,5.95
2023-02-03T08:59:51.226Z,5.03
2023-02-03T09:01:55.070Z,6.43
2023-02-03T09:03:58.510Z,5.55
2023-02-03T09:06:01.602Z,6.38
2023-02-03T09:08:06.641Z,5.20
2023-02-03T09:10:10.682Z,6.22
2023-02-03T09:12:13.849Z,6.97
2023-02-03T09:14:16.880Z,6.28
2023-02-03T09:16:21.349Z,5.53
2023-02-03T09:18:24.426Z,6.10
2023-02-03T09:20:28.006Z,6.32
2023-02-03T09:22:31.413Z,7.30
2023-02-03T09:24:35.955Z,7.32
2023-02-03T09:26:38.969Z,6.50
2023-02-03T09:28:42.189Z,6.65
2023-02-03T09:30:45.274Z,8.00
2023-02-03T09:32:54.086Z,7.68
2023-02-03T09:34:57.168Z,7.32
2023-02-03T09:37:00.254Z,8.10
2023-02-03T09:39:03.316Z,7.75
2023-02-03T09:41:19.185Z,7.28
2023-02-03T09:43:37.688Z,9.52
2023-02-03T09:45:40.837Z,7.85
2023-02-03T09:47:45.416Z,7.00
2023-02-03T09:49:51.693Z,7.35
2023-02-03T09:51:59.554Z,8.10
2023-02-03T09:54:08.738Z,7.97
2023-02-03T09:56:24.677Z,8.45
2023-02-03T09:58:33.564Z,8.35
2023-02-03T10:00:42.388Z,8.00
2023-02-03T10:02:57.086Z,9.20
2023-02-03T10:05:07.438Z,9.40
2023-02-03T10:07:16.843Z,9.55
2023-02-03T10:09:38.395Z,9.52
2023-02-03T10:11:59.600Z,8.15
2023-02-03T10:14:16.292Z,8.50
2023-02-03T10:16:37.000Z,9.10
2023-02-03T10:18:43.496Z,9.23
2023-02-03T10:20:51.084Z,9.77
2023-02-03T10:22:57.196Z,9.27
2023-02-03T10:25:05.285Z,9.68
2023-02-03T10:27:18.056Z,8.43
2023-02-03T10:29:25.537Z,8.45
2023-02-03T10:31:32.298Z,8.90
2023-02-03T10:33:35.756Z,8.38
2023-02-03T10:35:47.713Z,8.63
2023-02-03T10:37:52.939Z,8.57
2023-02-03T10:39:58.838Z,8.80
2023-02-03T10:42:04.391Z,9.07
2023-02-03T10:44:12.481Z,7.82
2023-02-03T10:46:15.943Z,9.05
2023-02-03T10:48:20.110Z,9.02
2023-02-03T10:50:31.506Z,8.93
2023-02-03T10:52:36.029Z,7.97
2023-02-03T10:54:39.256Z,9.52
2023-02-03T10:56:42.470Z,8.48
2023-02-03T10:58:50.609Z,9.35
2023-02-03T11:00:59.881Z,9.35
2023-02-03T11:03:08.991Z,10.50
2023-02-03T11:05:22.309Z,9.88
2023-02-03T11:07:27.007Z,9.70
2023-02-03T11:09:33.357Z,8.82
2023-02-03T11:11:41.567Z,9.55
2023-02-03T11:13:44.783Z,8.88
2023-02-03T11:15:57.878Z,9.13
2023-02-03T11:18:01.076Z,9.20
2023-02-03T11:20:14.092Z,8.95
2023-02-03T11:22:29.849Z,8.73
2023-02-03T11:24:34.957Z,8.05
2023-02-03T11:26:42.753Z,8.10
2023-02-03T11:28:48.736Z,7.45
2023-02-03T11:30:59.045Z,7.40
2023-02-03T11:33:03.812Z,7.40
2023-02-03T11:35:18.643Z,8.40
2023-02-03T11:37:31.203Z,7.78
2023-02-03T11:39:35.790Z,7.85
2023-02-03T11:41:40.120Z,7.32
2023-02-03T11:43:43.178Z,8.40
2023-02-03T11:45:48.713Z,7.80
2023-02-03T11:48:17.027Z,8.57
2023-02-03T11:50:31.315Z,7.30
2023-02-03T11:52:51.472Z,7.97
2023-02-03T11:55:04.976Z,8.13
2023-02-03T11:57:30.631Z,6.97
2023-02-03T11:59:43.886Z,7.05
2023-02-03T12:02:23.333Z,6.85
2023-02-03T12:04:49.434Z,7.93
2023-02-03T12:07:07.382Z,8.20
2023-02-03T12:09:22.885Z,8.30
2023-02-03T12:11:46.131Z,7.40
2023-02-03T12:14:14.507Z,7.68
2023-02-03T12:16:38.409Z,8.65
2023-02-03T12:18:53.805Z,7.03
2023-02-03T12:21:12.990Z,7.75
2023-02-03T12:23:26.812Z,8.00
2023-02-03T12:25:38.346Z,6.68
2023-02-03T12:29:55.548Z,6.65
2023-02-03T12:32:07.885Z,7.45
2023-02-03T12:34:18.882Z,7.68
2023-02-03T12:36:27.964Z,6.60
2023-02-03T12:38:36.807Z,7.40
2023-02-03T12:40:49.169Z,8.85
2023-02-03T12:42:57.167Z,6.97
2023-02-03T12:45:04.887Z,7.50
2023-02-03T12:47:18.669Z,8.18
2023-02-03T12:49:33.863Z,7.60
2023-02-03T12:51:43.737Z,8.45
2023-02-03T12:53:52.187Z,7.50
2023-02-03T12:56:04.312Z,8.63
2023-02-03T12:58:11.807Z,7.32
2023-02-03T13:00:33.183Z,7.63
2023-02-03T13:02:51.105Z,6.25
2023-02-03T13:04:59.051Z,7.75
2023-02-03T13:07:10.681Z,10.60
2023-02-03T13:09:25.444Z,6.72
2023-02-03T13:11:35.195Z,7.43
2023-02-03T13:13:43.868Z,7.53
2023-02-03T13:15:50.512Z,7.35
2023-02-03T13:17:59.057Z,6.82
2023-02-03T13:20:15.157Z,6.30
2023-02-03T13:22:23.746Z,7.57
2023-02-03T13:24:29.186Z,6.72
2023-02-03T13:26:48.657Z,6.85
2023-02-03T13:29:06.323Z,8.05
2023-02-03T13:31:23.416Z,7.40
2023-02-03T13:33:55.923Z,7.38
2023-02-03T13:36:14.003Z,7.07
2023-02-03T13:38:34.081Z,8.35
2023-02-03T13:40:49.450Z,7.22
2023-02-03T13:42:56.414Z,7.65
2023-02-03T13:45:08.349Z,7.00
2023-02-03T13:47:17.745Z,7.28
2023-02-03T13:49:28.452Z,6.82
2023-02-03T13:51:35.191Z,7.33
2023-02-03T13:53:42.583Z,6.97
2023-02-03T13:55:54.006Z,6.43
2023-02-03T13:57:57.785Z,6.65
2023-02-03T14:00:01.435Z,6.53
2023-02-03T14:02:43.212Z,7.22
2023-02-03T14:04:55.030Z,7.03
2023-02-03T14:07:01.056Z,7.35
2023-02-03T14:09:21.582Z,6.22
2023-02-03T14:11:49.083Z,5.43
2023-02-03T14:13:52.726Z,6.82
2023-02-03T14:16:16.530Z,7.38
2023-02-03T14:18:34.670Z,7.40
2023-02-03T14:20:57.270Z,6.15
2023-02-03T14:23:07.856Z,6.72
2023-02-03T14:25:12.380Z,6.15
2023-02-03T14:27:21.255Z,5.78
2023-02-03T14:29:29.528Z,7.40
2023-02-03T14:31:32.948Z,7.63
2023-02-03T14:34:15.715Z,7.10
2023-02-03T14:36:35.069Z,7.40
2023-02-03T14:38:38.207Z,7.07
2023-02-03T14:40:49.379Z,7.15
2023-02-03T14:43:31.779Z,6.75
2023-02-03T14:45:58.492Z,7.88
2023-02-03T14:48:15.260Z,7.25
2023-02-03T14:50:29.938Z,6.57
2023-02-03T14:53:04.036Z,8.70
2023-02-03T14:55:26.629Z,7.75
2023-02-03T14:57:39.915Z,7.38
2023-02-03T14:59:46.936Z,7.38
2023-02-03T15:02:09.398Z,8.00
2023-02-03T15:04:23.245Z,7.55
2023-02-03T15:06:39.979Z,8.38
2023-02-03T15:08:46.720Z,7.95
2023-02-03T15:10:49.880Z,8.20
2023-02-03T15:12:59.249Z,10.68
2023-02-03T15:15:14.501Z,9.50
2023-02-03T15:17:26.153Z,7.85
2023-02-03T15:19:34.434Z,8.57
2023-02-03T15:21:43.440Z,8.57
2023-02-03T15:23:49.467Z,7.70
2023-02-03T15:25:57.296Z,9.60
2023-02-03T15:28:22.196Z,9.10
2023-02-03T15:30:30.389Z,7.45
2023-02-03T15:32:42.023Z,8.75
2023-02-03T15:34:49.187Z,10.30
2023-02-03T15:36:56.719Z,11.23
2023-02-03T15:39:08.937Z,12.48
2023-02-03T15:41:22.724Z,9.52
2023-02-03T15:43:32.776Z,11.35
2023-02-03T15:45:43.082Z,8.63
2023-02-03T15:47:55.237Z,9.82
2023-02-03T15:50:26.097Z,11.43
2023-02-03T15:52:31.708Z,8.10
2023-02-03T15:55:04.166Z,9.88
2023-02-03T15:57:22.629Z,9.52
2023-02-03T15:59:33.413Z,8.48
2023-02-03T16:01:36.653Z,10.27
2023-02-03T16:03:42.905Z,10.23
2023-02-03T16:05:49.498Z,7.25
2023-02-03T16:07:52.771Z,8.15
2023-02-03T16:09:57.083Z,7.85
2023-02-03T16:12:16.389Z,6.88
2023-02-03T16:14:34.916Z,7.38
2023-02-03T16:16:43.764Z,8.27
2023-02-03T16:18:54.354Z,7.78
2023-02-03T16:20:57.442Z,7.50
2023-02-03T16:23:04.242Z,8.35
2023-02-03T16:25:19.613Z,8.07
2023-02-03T16:27:34.429Z,7.45
2023-02-03T16:29:56.557Z,7.57
2023-02-03T16:32:17.712Z,8.23
2023-02-03T16:34:38.208Z,7.78
2023-02-03T16:37:00.434Z,8.55
2023-02-03T16:39:27.567Z,7.95
2023-02-03T16:41:49.645Z,7.13
2023-02-03T16:44:10.246Z,9.07
2023-02-03T16:46:32.573Z,8.07
2023-02-03T16:48:52.979Z,8.75
2023-02-03T16:50:59.283Z,9.63
2023-02-03T16:53:02.904Z,8.88
2023-02-03T16:55:06.979Z,8.00
2023-02-03T16:57:10.164Z,8.65
2023-02-03T16:59:13.361Z,9.43
2023-02-03T17:01:23.028Z,9.00
2023-02-03T17:03:28.479Z,8.70
2023-02-03T17:05:32.056Z,8.88
2023-02-03T17:07:35.781Z,7.07
2023-02-03T17:09:40.893Z,8.48
2023-02-03T17:11:44.110Z,8.80
2023-02-03T17:13:48.203Z,8.68
2023-02-03T17:16:03.219Z,9.40
2023-02-03T17:18:08.385Z,8.25
2023-02-03T17:20:12.066Z,8.60
2023-02-03T17:22:15.151Z,9.95
2023-02-03T17:24:18.281Z,10.00
2023-02-03T17:26:21.424Z,10.05
2023-02-03T17:28:24.505Z,8.68
2023-02-03T17:30:29.034Z,8.98
2023-02-03T17:32:32.152Z,8.95
2023-02-03T17:34:37.959Z,9.18
2023-02-03T17:36:41.062Z,10.00
2023-02-03T17:55:09.224Z,7.38
2023-02-03T17:57:12.342Z,8.18
2023-02-03T17:59:15.522Z,8.20
2023-02-03T18:01:20.569Z,9.05
2023-02-03T18:03:23.656Z,10.13
2023-02-03T18:05:26.790Z,9.13
2023-02-03T18:07:31.301Z,8.60
2023-02-03T18:09:34.365Z,9.38
2023-02-03T18:11:38.922Z,8.27
2023-02-03T18:13:43.881Z,8.48
2023-02-03T18:15:47.169Z,8.05
2023-02-03T18:17:50.327Z,9.07
2023-02-03T18:19:56.157Z,8.65
2023-02-03T18:21:59.936Z,9.38
2023-02-03T18:24:05.883Z,8.23
2023-02-03T18:26:11.768Z,7.85
2023-02-03T18:28:16.007Z,7.28
2023-02-03T18:30:21.582Z,6.78
2023-02-03T18:32:24.703Z,7.20
2023-02-03T18:34:27.870Z,7.07
2023-02-03T18:36:30.960Z,6.30
2023-02-03T18:38:36.248Z,6.53
2023-02-03T18:40:40.911Z,7.28
2023-02-03T18:42:44.070Z,6.50
2023-02-03T18:44:47.208Z,8.52
2023-02-03T18:46:53.230Z,8.38
2023-02-03T18:48:56.797Z,8.55
2023-02-03T18:51:00.094Z,8.48
2023-02-03T18:53:03.164Z,9.52
2023-02-03T18:55:06.749Z,10.05
2023-02-03T18:57:13.278Z,8.75
2023-02-03T18:59:16.390Z,10.20
2023-02-03T19:01:27.178Z,9.10
2023-02-03T19:03:30.463Z,8.75
2023-02-03T19:05:33.623Z,8.10
2023-02-03T19:07:36.787Z,8.77
2023-02-03T19:09:40.888Z,8.68
2023-02-03T19:11:44.040Z,9.32
2023-02-03T19:13:48.484Z,9.55
2023-02-03T19:15:53.002Z,8.50
2023-02-03T19:17:56.135Z,9.02
2023-02-03T19:19:59.276Z,9.50
2023-02-03T19:22:02.396Z,8.82
2023-02-03T19:24:06.345Z,9.20
2023-02-03T19:26:10.112Z,7.82
2023-02-03T19:28:20.062Z,7.95
2023-02-03T19:30:29.200Z,6.68
2023-02-03T19:32:33.113Z,7.85
2023-02-03T19:34:36.280Z,7.60
2023-02-03T19:36:39.404Z,7.82
2023-02-03T19:38:42.749Z,6.93
2023-02-03T19:40:46.732Z,6.60
2023-02-03T19:42:50.105Z,4.75
2023-02-03T19:44:53.409Z,5.88
2023-02-03T19:46:57.933Z,5.50
2023-02-03T19:49:01.065Z,4.65
2023-02-03T19:51:04.178Z,5.57
2023-02-03T19:53:08.434Z,4.05
2023-02-03T19:55:12.527Z,3.65
2023-02-03T19:57:15.888Z,3.88
2023-02-03T19:59:18.972Z,3.53
2023-02-03T20:01:24.047Z,4.10
2023-02-03T20:03:28.671Z,2.95
2023-02-03T20:05:31.722Z,3.53
2023-02-03T20:07:34.825Z,3.17
2023-02-03T20:09:37.868Z,2.65
2023-02-03T20:11:40.915Z,2.58
2023-02-03T20:13:44.366Z,2.17
2023-02-03T20:15:47.632Z,2.05
2023-02-03T20:17:50.836Z,1.85
2023-02-03T20:19:55.302Z,2.20
2023-02-03T20:21:58.384Z,1.75
2023-02-03T20:24:01.498Z,2.38
2023-02-03T20:26:06.935Z,1.90
2023-02-03T20:28:10.191Z,1.80
2023-02-03T20:30:14.354Z,2.13
2023-02-03T20:32:17.492Z,2.58
2023-02-03T20:34:20.663Z,2.25
2023-02-03T20:36:25.183Z,2.05
2023-02-03T20:38:28.502Z,2.03
2023-02-03T20:40:32.467Z,2.15
2023-02-03T20:42:35.746Z,2.13
2023-02-03T20:44:38.783Z,2.05
2023-02-03T20:46:42.731Z,2.83
2023-02-03T20:48:45.926Z,2.22
2023-02-03T20:50:50.288Z,2.47
2023-02-03T20:52:54.823Z,2.20
2023-02-03T20:54:57.868Z,1.95
2023-02-03T20:57:00.890Z,2.33
2023-02-03T20:59:03.944Z,1.90
2023-02-03T21:01:14.389Z,1.92
2023-02-03T21:03:36.137Z,1.70
2023-02-03T21:07:45.010Z,1.70
2023-02-03T21:09:49.419Z,1.75
2023-02-03T21:11:53.113Z,1.70
2023-02-03T21:13:56.507Z,1.10
2023-02-03T21:16:03.152Z,1.35
2023-02-03T21:18:36.440Z,1.48
2023-02-03T21:20:39.435Z,1.30
2023-02-03T21:22:42.454Z,1.38
2023-02-03T21:24:52.188Z,1.25
2023-02-03T21:26:55.942Z,0.98
2023-02-03T21:29:00.975Z,1.20
2023-02-03T21:31:04.081Z,1.05
2023-02-03T21:33:28.724Z,1.02
2023-02-03T21:35:37.187Z,0.98
2023-02-03T21:37:42.286Z,1.02
2023-02-03T21:39:46.242Z,1.00
2023-02-03T21:41:50.671Z,0.98
2023-02-03T21:43:56.899Z,1.05
2023-02-03T21:46:00.085Z,0.98
2023-02-03T21:48:23.894Z,0.90
2023-02-03T21:50:32.126Z,0.82
2023-02-03T21:52:36.060Z,0.98
2023-02-03T21:54:41.852Z,0.80
2023-02-03T21:56:45.410Z,1.02
2023-02-03T21:58:52.055Z,0.98
2023-02-03T22:00:55.998Z,0.75
2023-02-03T22:03:00.652Z,1.02
2023-02-03T22:05:04.397Z,0.80
2023-02-03T22:07:16.008Z,1.00
2023-02-03T22:09:21.127Z,0.90
2023-02-03T22:11:26.045Z,1.10
2023-02-03T22:13:29.510Z,1.10
2023-02-03T22:15:33.886Z,1.08
2023-02-03T22:17:37.030Z,1.10
2023-02-03T22:19:40.214Z,1.20
2023-02-03T22:21:43.277Z,0.90
2023-02-03T22:23:46.769Z,1.30
2023-02-03T22:25:50.485Z,1.25
2023-02-03T22:27:53.543Z,0.88
2023-02-03T22:29:56.733Z,1.15
2023-02-03T22:32:01.691Z,1.40
2023-02-03T22:34:05.154Z,0.93
2023-02-03T22:36:09.977Z,1.10
2023-02-03T22:38:13.026Z,1.15
2023-02-03T22:40:16.167Z,1.20
2023-02-03T22:42:19.132Z,1.10
2023-02-03T22:44:22.217Z,1.00
2023-02-03T22:46:25.263Z,0.90
2023-02-03T22:48:30.466Z,1.00
2023-02-03T22:50:36.061Z,1.05
2023-02-03T22:52:39.852Z,1.10
2023-02-03T22:54:42.908Z,0.80
2023-02-03T22:56:46.121Z,1.40
2023-02-03T22:58:49.252Z,1.42
2023-02-03T23:00:52.347Z,1.48
2023-02-03T23:02:56.024Z,0.98
2023-02-03T23:05:00.632Z,1.00
2023-02-03T23:07:03.732Z,0.80
2023-02-03T23:09:06.865Z,1.10
2023-02-03T23:11:09.980Z,1.77
2023-02-03T23:13:13.016Z,1.10
2023-02-03T23:15:17.938Z,1.13
2023-02-03T23:17:21.014Z,1.15
2023-02-03T23:19:24.835Z,1.02
2023-02-03T23:21:29.577Z,1.33
2023-02-03T23:23:32.762Z,0.95
2023-02-03T23:25:36.014Z,0.90
2023-02-03T23:27:39.408Z,0.82
2023-02-03T23:29:43.052Z,0.90
2023-02-03T23:31:46.173Z,0.90
2023-02-03T23:34:03.150Z,0.88
2023-02-03T23:36:07.055Z,1.13
2023-02-03T23:38:12.080Z,1.00
2023-02-03T23:40:15.478Z,1.10
2023-02-03T23:42:18.559Z,1.13
2023-02-03T23:44:21.909Z,0.93
2023-02-03T23:46:25.138Z,0.90
2023-02-03T23:48:28.523Z,1.27
2023-02-03T23:50:32.231Z,0.90
2023-02-03T23:52:36.769Z,1.10
2023-02-03T23:54:41.899Z,1.10
2023-02-03T23:56:45.045Z,1.10
2023-02-03T23:58:48.106Z,1.42
